Weather observations for the past three days for
Nuiqsut, Nuiqsut Airport
Imperial (Metric)
Date Time (akdt) Wind (mph) Vis. (mi.) Weather Sky Cond. Temperature (ºF) Relative Humidity Wind Chill (°F) Heat Index (°F) Pressure Precipitation (in)
Air Dwpt 6 hour altimeter (in) sea level (mb) 1 hr 3 hr 6 hr
Max. Min.
07 18:53 N 5 10.00 Overcast OVC009 23 16 74% 18 30.28 1025.5
07 17:53 W 6 10.00 Overcast OVC009 21.9 16 78% 15 30.28 1025.4
07 16:53 W 7 10.00 Unknown Precip OVC010 21 16 81% 13 30.28 1025.5
07 15:53 W 5 10.00 Overcast OVC010 21 16 23 19.9 81% 15 30.28 1025.4
07 14:53 W 7 10.00 Unknown Precip OVC010 21 16 81% 13 30.28 1025.4
07 13:53 W 10 10.00 Unknown Precip OVC009 21.9 16 78% 12 30.27 1025.1
07 12:53 W 8 10.00 Unknown Precip OVC008 21.9 17.1 82% 13 30.26 1024.7
07 11:53 W 10 10.00 Overcast OVC008 21.9 17.1 82% 12 30.25 1024.5
07 10:53 W 9 10.00 Overcast OVC008 21 16 81% 11 30.25 1024.3
07 09:53 W 8 10.00 Overcast OVC008 21.9 16 21.9 21 78% 13 30.24 1024.0
07 08:53 W 7 10.00 Overcast OVC008 21 16 81% 13 30.22 1023.5
07 07:53 W 8 10.00 Overcast OVC009 21.9 16 78% 13 30.21 1023.1
07 06:53 NW 8 10.00 Overcast OVC008 21 16 81% 12 30.2 1022.6
07 05:53 W 7 10.00 Overcast OVC009 21.9 16 78% 14 30.18 1022.2
07 04:53 W 9 10.00 Overcast OVC012 21.9 16 78% 13 30.18 1021.9
07 03:53 NW 6 10.00 Overcast OVC014 21.9 16 25 21.9 78% 15 30.16 1021.4
07 02:53 NW 9 10.00 Overcast OVC016 23 17.1 78% 14 30.14 1020.8
07 01:53 NW 7 10.00 Overcast OVC015 24.1 18 77% 17 30.13 1020.3
07 00:53 SW 6 10.00 Overcast OVC017 24.1 19.9 84% 18 30.11 1019.5
06 23:53 SW 8 10.00 Overcast OVC016 25 19.9 81% 17 30.09 1018.9
06 22:53 SW 8 10.00 Overcast OVC016 25 19.9 81% 17 30.07 1018.5
06 21:53 SW 10 10.00 Overcast OVC017 25 19.9 28 25 81% 16 30.06 1018.0
06 20:53 SW 13 10.00 Overcast OVC015 26.1 19.9 78% 16 30.05 1017.6
06 19:53 SW 12 10.00 Overcast OVC015 26.1 19 75% 16 30.04 1017.2
06 18:53 SW 14 10.00 Overcast OVC015 27 19 72% 16 30.02 1016.6
06 17:53 SW 15 10.00 Overcast OVC013 27 19.9 75% 16 30 1016.0
06 16:53 SW 15 10.00 Overcast OVC014 27 19.9 75% 16 29.99 1015.5
06 15:53 W 16 10.00 Overcast OVC014 28 21 28.9 24.1 75% 17 29.97 1014.9
06 14:53 SW 16 10.00 Overcast OVC014 28 19.9 72% 17 29.95 1014.4
06 13:53 W 17 10.00 Mostly Cloudy BKN013 28.9 21.9 75% 18 29.94 1013.7
06 12:53 W 16 10.00 Mostly Cloudy BKN013 27 21 78% 16 29.92 1013.2
06 11:53 W 16 10.00 Overcast OVC011 27 21 78% 16 29.9 1012.7
06 10:53 W 14 10.00 Mostly Cloudy SCT010 BKN060 26.1 19.9 78% 15 29.89 1012.3
06 09:53 W 15 10.00 A Few Clouds FEW009 FEW015 24.1 19 24.1 19 81% 12 29.88 1012.0
06 08:53 W 14 10.00 Overcast OVC010 21.9 17.1 82% 10 29.87 1011.6
06 07:53 W 16 10.00 Overcast SCT006 OVC018 21.9 17.1 82% 9 29.86 1011.2
06 06:53 W 16 10.00 Overcast OVC011 21.9 18 85% 9 29.85 1010.7
06 05:53 W 15 10.00 Overcast OVC007 21 16 81% 8 29.84 1010.6
06 04:53 W 15 10.00 Overcast FEW006 BKN046 OVC110 19.9 16 85% 7 29.83 1010.2
06 03:53 W 15 10.00 Overcast OVC007 24.1 19 25 24.1 81% 12 29.82 1009.8
06 02:53 W 17 10.00 Overcast OVC007 24.1 19.9 84% 11 29.81 1009.3
06 00:53 W 14 10.00 Overcast OVC015 25 19.9 81% 14 29.79 1008.9
05 23:53 W 12 10.00 Overcast OVC010 25 19 78% 15 29.78 1008.6
05 22:53 W 12 10.00 Overcast OVC011 25 19 78% 15 29.78 1008.6
05 21:53 NW 10 10.00 Overcast OVC011 25 19 28 25 78% 16 29.78 1008.6
05 20:53 W 12 10.00 Unknown Precip FEW009 BKN015 OVC021 26.1 21 81% 16 29.78 1008.3
05 19:53 W 12 6.00 Unknown Precip FEW008 BKN016 OVC021 27 21 78% 17 29.77 1008.2
05 18:53 NW 10 8.00 Unknown Precip OVC017 27 21 78% 18 29.77 1008.2
05 17:53 NW 8 4.00 Light Snow OVC017 27 21 78% 19 29.77 1008.2
05 16:53 NW 8 6.00 Unknown Precip OVC016 28 21 75% 21 29.78 1008.3
05 15:53 NW 9 8.00 Unknown Precip SCT011 OVC019 28 21 28 27 75% 20 29.78 1008.4 0.02
05 14:53 NW 9 3.00 Light Snow SCT008 BKN012 OVC032 27 21 78% 19 29.78 1008.5 0.01
05 13:53 N 8 2.00 Light Snow SCT007 OVC037 28 21 75% 21 29.78 1008.6
05 12:53 N 8 2.00 Light Snow SCT009 BKN013 OVC032 27 21 78% 19 29.79 1008.9 0.01
05 11:53 N 8 1.25 Light Snow BKN009 BKN031 OVC039 27 21 78% 19 29.8 1009.0
05 10:53 N 9 1.00 Light Snow FEW006 BKN024 OVC034 26.1 21 81% 18 29.81 1009.4 0.01
05 09:53 N 10 0.75 Light Snow BKN018 OVC027 26.1 21 26.1 25 81% 17 29.82 1009.8
05 08:53 N 8 2.50 Light Snow OVC015 26.1 21 81% 18 29.83 1010.2
05 07:53 NE 8 1.50 Light Snow Fog/Mist BKN008 OVC013 25 21 85% 17 29.84 1010.5
05 06:53 NE 10 4.00 Unknown Precip Fog/Mist OVC008 25 21 85% 16 29.85 1010.9
05 05:53 NE 12 2.00 Unknown Precip Fog/Mist OVC004 25 21.9 88% 15 29.87 1011.5
05 04:53 NE 14 1.25 Unknown Precip Fog/Mist OVC004 25 21 85% 14 29.88 1012.0
05 03:53 NE 15 1.75 Unknown Precip Fog/Mist OVC004 26.1 21.9 28 26.1 84% 15 29.9 1012.4
05 02:53 NE 15 3.00 Unknown Precip Fog/Mist OVC005 26.1 21.9 84% 15 29.91 1012.9
05 01:53 NE 15 2.50 Unknown Precip Fog/Mist OVC004 27 23 85% 16 29.93 1013.6
05 00:53 NE 15 1.50 Unknown Precip Fog/Mist OVC004 27 23 85% 16 29.95 1014.2
04 23:53 NE 12 0.50 Light Snow Freezing Fog VV009 27 24.1 89% 17 29.97 1015.0
04 22:53 NE 13 0.50 Light Snow Freezing Fog OVC011 28 24.1 85% 18 29.98 1015.4
04 21:53 NE 12 4.00 Unknown Precip Fog/Mist OVC004 28 24.1 30.9 28 85% 19 30.01 1016.2
04 20:53 NE 16 2.50 Unknown Precip Fog/Mist OVC004 28 24.1 85% 17 30.02 1016.7
Date Time (akdt) Wind (mph) Vis. (mi.) Weather Sky Cond. Air Dwpt Max. Min. Relative Humidity Wind Chill (°F) Heat Index (°F) altimeter (in) sea level (mb) 1 hr 3 hr 6 hr
6 hour
Temperature (ºF) Pressure Precipitation (in)